createdAt,value
2018-06-04T00:02:51.681Z,61.87
2018-06-04T00:05:53.813Z,61.66
2018-06-04T00:08:55.926Z,63.16
2018-06-04T00:11:58.904Z,63.23
2018-06-04T00:15:01.975Z,63.57
2018-06-04T00:18:04.317Z,64.25
2018-06-04T00:21:06.440Z,63.84
2018-06-04T00:24:08.491Z,63.31
2018-06-04T00:27:11.578Z,63.96
2018-06-04T00:30:14.588Z,64.08
2018-06-04T00:33:16.662Z,63.41
2018-06-04T00:36:18.678Z,63.19
2018-06-04T00:39:20.696Z,62.93
2018-06-04T00:42:22.779Z,62.74
2018-06-04T00:45:24.984Z,63.05
2018-06-04T00:48:27.093Z,62.97
2018-06-04T00:51:29.180Z,62.52
2018-06-04T00:54:31.096Z,61.86
2018-06-04T00:57:33.752Z,62.69
2018-06-04T01:00:35.906Z,62.95
2018-06-04T01:03:37.931Z,63.18
2018-06-04T01:06:39.885Z,63.87
2018-06-04T01:09:42.037Z,64.27
2018-06-04T01:12:44.083Z,63.74
2018-06-04T01:15:46.472Z,64.01
2018-06-04T01:18:48.544Z,63.42
2018-06-04T01:21:50.583Z,64.32
2018-06-04T01:24:52.770Z,64.89
2018-06-04T01:27:54.809Z,63.78
2018-06-04T01:30:56.783Z,63.53
2018-06-04T01:33:58.847Z,63.90
2018-06-04T01:37:00.897Z,64.41
2018-06-04T01:40:05.175Z,63.43
2018-06-04T01:43:07.319Z,63.76
2018-06-04T01:46:09.410Z,64.46
2018-06-04T01:49:11.462Z,64.67
2018-06-04T01:52:13.547Z,65.00
2018-06-04T01:55:15.639Z,65.31
2018-06-04T01:58:17.748Z,65.18
2018-06-04T02:01:19.845Z,64.84
2018-06-04T02:04:21.784Z,66.21
2018-06-04T02:07:23.876Z,66.38
2018-06-04T02:10:25.925Z,66.00
2018-06-04T02:13:28.012Z,66.08
2018-06-04T02:16:29.939Z,67.13
2018-06-04T02:19:32.019Z,68.52
2018-06-04T02:22:35.547Z,69.17
2018-06-04T02:25:37.728Z,69.29
2018-06-04T02:28:39.755Z,70.08
2018-06-04T02:31:41.816Z,70.12
2018-06-04T02:34:43.891Z,69.24
2018-06-04T02:37:45.990Z,69.77
2018-06-04T02:40:48.058Z,69.81
2018-06-04T02:43:51.172Z,70.40
2018-06-04T02:46:53.309Z,69.77
2018-06-04T02:49:55.440Z,69.67
2018-06-04T02:52:57.472Z,70.03
2018-06-04T02:55:59.619Z,69.94
2018-06-04T02:59:01.708Z,70.33
2018-06-04T03:02:04.885Z,70.46
2018-06-04T03:05:06.929Z,70.14
2018-06-04T03:08:09.041Z,68.33
2018-06-04T03:11:11.098Z,69.97
2018-06-04T03:14:13.278Z,69.78
2018-06-04T03:17:15.182Z,70.12
2018-06-04T03:20:17.201Z,69.24
2018-06-04T03:23:19.370Z,70.64
2018-06-04T03:26:21.452Z,70.99
2018-06-04T03:29:23.483Z,70.17
2018-06-04T03:32:25.451Z,71.28
2018-06-04T03:35:27.498Z,71.24
2018-06-04T03:38:29.643Z,70.82
2018-06-04T03:41:31.659Z,70.72
2018-06-04T03:44:33.776Z,70.97
2018-06-04T03:47:36.819Z,71.10
2018-06-04T03:50:38.887Z,71.09
2018-06-04T03:53:43.027Z,71.33
2018-06-04T03:56:45.115Z,71.59
2018-06-04T03:59:47.179Z,70.48
2018-06-04T04:02:49.372Z,71.32
2018-06-04T04:05:51.391Z,71.54
2018-06-04T04:08:53.454Z,71.41
2018-06-04T04:11:55.528Z,71.04
2018-06-04T04:14:57.616Z,70.36
2018-06-04T04:17:59.663Z,70.18
2018-06-04T04:21:01.757Z,71.34
2018-06-04T04:24:03.823Z,71.24
2018-06-04T04:27:06.967Z,71.91
2018-06-04T04:30:09.109Z,72.05
2018-06-04T04:33:11.131Z,71.71
2018-06-04T04:36:13.331Z,70.63
2018-06-04T04:39:15.476Z,70.53
2018-06-04T04:42:17.543Z,70.16
2018-06-04T04:45:19.647Z,69.73
2018-06-04T04:48:21.687Z,70.71
2018-06-04T04:51:23.774Z,69.89
2018-06-04T04:54:25.883Z,71.47
2018-06-04T04:57:27.905Z,71.06
2018-06-04T05:00:29.992Z,70.97
2018-06-04T05:03:32.012Z,70.66
2018-06-04T05:06:34.136Z,69.86
2018-06-04T05:09:36.301Z,69.81
2018-06-04T05:12:38.744Z,69.01
2018-06-04T05:15:40.912Z,70.21
2018-06-04T05:18:42.943Z,69.21
2018-06-04T05:21:44.953Z,69.32
2018-06-04T05:24:47.021Z,69.50
2018-06-04T05:27:49.083Z,69.48
2018-06-04T05:30:51.280Z,69.61
2018-06-04T05:33:53.191Z,70.37
2018-06-04T05:36:55.201Z,70.05
2018-06-04T05:39:57.282Z,69.00
2018-06-04T05:43:00.314Z,69.02
2018-06-04T05:46:02.419Z,69.60
2018-06-04T05:49:04.717Z,69.47
2018-06-04T05:52:06.868Z,68.87
2018-06-04T05:55:08.908Z,68.67
2018-06-04T05:58:10.909Z,69.19
2018-06-04T06:01:13.993Z,68.92
2018-06-04T06:04:16.056Z,68.29
2018-06-04T06:07:20.211Z,68.61
2018-06-04T06:10:22.395Z,68.72
2018-06-04T06:13:24.418Z,68.26
2018-06-04T06:16:26.363Z,67.92
2018-06-04T06:19:29.557Z,68.04
2018-06-04T06:22:31.670Z,67.80
2018-06-04T06:25:33.738Z,67.31
2018-06-04T06:28:35.921Z,66.13
2018-06-04T06:31:38.003Z,65.86
2018-06-04T06:34:40.150Z,66.12
2018-06-04T06:37:42.287Z,65.41
2018-06-04T06:40:44.272Z,66.04
2018-06-04T06:43:46.346Z,65.32
2018-06-04T06:46:48.324Z,65.56
2018-06-04T06:49:50.387Z,64.97
2018-06-04T06:52:52.362Z,65.55
2018-06-04T06:55:54.418Z,64.96
2018-06-04T06:58:56.505Z,64.11
2018-06-04T07:01:59.614Z,64.40
2018-06-04T07:05:01.561Z,64.15
2018-06-04T07:08:03.725Z,63.86
2018-06-04T07:11:05.789Z,63.62
2018-06-04T07:14:07.857Z,63.47
2018-06-04T07:17:10.847Z,63.08
2018-06-04T07:20:12.908Z,62.89
2018-06-04T07:23:16.005Z,63.53
2018-06-04T07:26:18.105Z,61.91
2018-06-04T07:29:20.145Z,61.67
2018-06-04T07:32:22.323Z,61.29
2018-06-04T07:35:24.274Z,61.36
2018-06-04T07:38:26.342Z,60.67
2018-06-04T07:41:28.394Z,60.49
2018-06-04T07:44:30.498Z,60.71
2018-06-04T07:47:32.917Z,60.44
2018-06-04T07:50:34.941Z,59.51
2018-06-04T07:53:36.981Z,60.32
2018-06-04T07:56:39.895Z,59.77
2018-06-04T07:59:41.905Z,60.19
2018-06-04T08:02:43.899Z,59.96
2018-06-04T08:05:45.931Z,58.28
2018-06-04T08:08:48.129Z,58.12
2018-06-04T08:11:50.209Z,57.40
2018-06-04T08:14:52.152Z,57.97
2018-06-04T08:17:54.256Z,58.29
2018-06-04T08:20:56.312Z,57.71
2018-06-04T08:23:58.412Z,58.07
2018-06-04T08:27:00.512Z,57.85
2018-06-04T08:30:02.660Z,56.53
2018-06-04T08:33:06.965Z,57.22
2018-06-04T08:36:08.980Z,56.75
2018-06-04T08:39:11.212Z,56.70
2018-06-04T08:42:13.270Z,56.23
2018-06-04T08:45:16.356Z,57.74
2018-06-04T08:48:18.519Z,55.97
2018-06-04T08:51:20.588Z,55.79
2018-06-04T08:54:23.686Z,55.17
2018-06-04T08:57:25.723Z,55.99
2018-06-04T09:00:27.713Z,55.74
2018-06-04T09:03:30.719Z,55.11
2018-06-04T09:06:32.767Z,54.94
2018-06-04T09:09:34.771Z,55.00
2018-06-04T09:12:37.009Z,54.07
2018-06-04T09:15:39.161Z,53.28
2018-06-04T09:18:41.150Z,53.61
2018-06-04T09:21:43.217Z,53.19
2018-06-04T09:24:45.192Z,52.14
2018-06-04T09:27:47.232Z,52.09
2018-06-04T09:30:49.372Z,51.65
2018-06-04T09:33:51.376Z,51.51
2018-06-04T09:36:53.474Z,51.73
2018-06-04T09:39:55.642Z,50.81
2018-06-04T09:42:57.679Z,50.34
2018-06-04T09:46:01.036Z,52.08
2018-06-04T09:49:03.004Z,49.45
2018-06-04T09:52:05.159Z,49.76
2018-06-04T09:55:07.203Z,49.56
2018-06-04T09:58:09.285Z,49.81
2018-06-04T10:01:11.228Z,49.04
2018-06-04T10:04:13.337Z,48.42
2018-06-04T10:07:15.558Z,48.50
2018-06-04T10:10:17.573Z,48.79
2018-06-04T10:13:20.671Z,48.81
2018-06-04T10:16:23.234Z,49.76
2018-06-04T10:19:25.416Z,49.19
2018-06-04T10:22:27.562Z,47.31
2018-06-04T10:25:29.571Z,48.29
2018-06-04T10:28:32.764Z,47.80
2018-06-04T10:31:34.763Z,46.55
2018-06-04T10:34:36.858Z,45.94
2018-06-04T10:37:38.955Z,45.15
2018-06-04T10:40:41.055Z,42.41
2018-06-04T10:43:45.173Z,44.28
2018-06-04T10:46:47.395Z,45.78
2018-06-04T10:49:50.434Z,42.87
2018-06-04T10:52:52.490Z,43.49
2018-06-04T10:55:54.642Z,44.19
2018-06-04T10:58:56.664Z,41.10
2018-06-04T11:01:58.671Z,38.73
2018-06-04T11:05:01.787Z,36.31
2018-06-04T11:08:03.895Z,38.05
2018-06-04T11:11:06.230Z,34.40
2018-06-04T11:14:08.227Z,32.89
2018-06-04T11:17:10.260Z,34.58
2018-06-04T11:20:12.313Z,32.77
2018-06-04T11:23:14.823Z,31.89
2018-06-04T11:26:16.940Z,32.86
2018-06-04T11:29:20.580Z,31.89
2018-06-04T11:32:22.773Z,33.07
2018-06-04T11:35:25.003Z,29.80
2018-06-04T11:38:27.016Z,31.14
2018-06-04T11:41:30.055Z,30.08
2018-06-04T11:44:32.169Z,32.00
2018-06-04T11:47:34.251Z,30.75
2018-06-04T11:50:36.366Z,36.08
2018-06-04T11:53:38.577Z,37.92
2018-06-04T11:56:40.707Z,38.44
2018-06-04T11:59:42.779Z,38.21
2018-06-04T12:02:44.838Z,36.62
2018-06-04T12:05:46.933Z,36.91
2018-06-04T12:08:51.647Z,37.38
2018-06-04T12:11:53.752Z,36.58
2018-06-04T12:14:55.800Z,33.98
2018-06-04T12:17:57.911Z,32.20
2018-06-04T12:21:03.099Z,32.02
2018-06-04T12:24:05.506Z,32.65
2018-06-04T12:27:07.520Z,31.28
2018-06-04T12:30:09.674Z,30.85
2018-06-04T12:33:11.854Z,31.59
2018-06-04T12:36:13.951Z,33.68
2018-06-04T12:39:16.033Z,34.53
2018-06-04T12:42:18.182Z,34.07
2018-06-04T12:45:21.228Z,33.10
2018-06-04T12:48:23.370Z,33.77
2018-06-04T12:51:25.411Z,34.85
2018-06-04T12:54:27.379Z,36.49
2018-06-04T12:57:29.475Z,35.90
2018-06-04T13:00:31.550Z,35.69
2018-06-04T13:03:34.607Z,34.26
2018-06-04T13:06:36.656Z,33.62
2018-06-04T13:09:38.724Z,33.99
2018-06-04T13:12:40.819Z,36.85
2018-06-04T13:15:42.845Z,36.12
2018-06-04T13:18:44.949Z,35.92
2018-06-04T13:21:47.031Z,37.27
2018-06-04T13:24:49.111Z,38.48
2018-06-04T13:27:51.939Z,37.54
2018-06-04T13:30:53.943Z,38.86
2018-06-04T13:33:55.907Z,35.98
2018-06-04T13:36:58.791Z,36.15
2018-06-04T13:40:01.074Z,36.77
2018-06-04T13:43:03.059Z,36.59
2018-06-04T13:46:05.111Z,35.70
2018-06-04T13:49:07.173Z,36.04
2018-06-04T13:52:09.272Z,34.78
2018-06-04T13:55:11.343Z,34.64
2018-06-04T13:58:13.396Z,34.38
2018-06-04T14:01:15.411Z,33.78
2018-06-04T14:04:17.515Z,33.38
2018-06-04T14:07:19.648Z,35.69
2018-06-04T14:10:21.970Z,33.12
2018-06-04T14:13:24.214Z,32.92
2018-06-04T14:16:27.126Z,34.16
2018-06-04T14:19:30.247Z,33.97
2018-06-04T14:22:32.292Z,32.64
2018-06-04T14:25:35.417Z,33.86
2018-06-04T14:28:37.481Z,34.43
2018-06-04T14:31:39.554Z,35.76
2018-06-04T14:34:41.576Z,37.16
2018-06-04T14:37:43.835Z,36.90
2018-06-04T14:40:46.010Z,36.88
2018-06-04T14:43:48.132Z,37.62
2018-06-04T14:46:50.943Z,37.83
2018-06-04T14:49:52.981Z,37.48
2018-06-04T14:52:55.027Z,37.93
2018-06-04T14:55:58.121Z,37.58
2018-06-04T14:59:00.223Z,36.69
2018-06-04T15:02:02.286Z,35.99
2018-06-04T15:05:04.358Z,35.81
2018-06-04T15:08:06.434Z,33.79
2018-06-04T15:11:08.588Z,33.06
2018-06-04T15:14:10.716Z,33.46
2018-06-04T15:17:12.678Z,32.58
2018-06-04T15:20:14.816Z,31.45
2018-06-04T15:23:16.881Z,32.42
2018-06-04T15:26:18.988Z,30.36
2018-06-04T15:29:22.440Z,30.84
2018-06-04T15:32:24.507Z,30.65
2018-06-04T15:35:26.518Z,29.74
2018-06-04T15:38:28.629Z,28.35
2018-06-04T15:41:30.698Z,28.80
2018-06-04T15:44:32.743Z,28.06
2018-06-04T15:47:35.007Z,28.58
2018-06-04T15:50:37.119Z,28.37
2018-06-04T15:53:39.258Z,28.32
2018-06-04T15:56:41.357Z,28.77
2018-06-04T15:59:43.409Z,29.46
2018-06-04T16:02:45.516Z,29.29
2018-06-04T16:05:47.606Z,29.23
2018-06-04T16:08:49.731Z,29.51
2018-06-04T16:11:52.442Z,29.72
2018-06-04T16:14:54.626Z,30.24
2018-06-04T16:17:56.636Z,30.56
2018-06-04T16:20:58.726Z,31.03
2018-06-04T16:24:00.790Z,30.79
2018-06-04T16:27:02.979Z,31.00
2018-06-04T16:30:05.104Z,31.03
2018-06-04T16:33:07.200Z,31.69
2018-06-04T16:36:09.305Z,31.43
2018-06-04T16:39:11.606Z,29.18
2018-06-04T16:42:13.607Z,29.67
2018-06-04T16:45:15.644Z,29.61
2018-06-04T16:48:17.710Z,30.75
2018-06-04T16:51:19.668Z,30.43
2018-06-04T16:54:22.897Z,30.91
2018-06-04T16:57:24.929Z,31.18
2018-06-04T17:00:27.021Z,30.58
2018-06-04T17:03:29.119Z,30.80
2018-06-04T17:06:31.271Z,31.65
2018-06-04T17:09:33.350Z,31.23
2018-06-04T17:12:35.423Z,31.58
2018-06-04T17:15:37.466Z,32.00
2018-06-04T17:18:39.510Z,31.95
2018-06-04T17:21:41.496Z,31.67
2018-06-04T17:24:43.578Z,32.97
2018-06-04T17:27:45.524Z,31.76
2018-06-04T17:30:47.618Z,32.37
2018-06-04T17:33:49.654Z,32.95
2018-06-04T17:36:52.370Z,32.48
2018-06-04T17:39:54.439Z,33.26
2018-06-04T17:43:00.115Z,32.79
2018-06-04T17:46:02.183Z,33.46
2018-06-04T17:49:04.635Z,33.44
2018-06-04T17:52:06.699Z,33.18
2018-06-04T17:55:08.767Z,33.76
2018-06-04T17:58:10.870Z,33.65
2018-06-04T18:01:12.939Z,34.09
2018-06-04T18:04:15.090Z,34.36
2018-06-04T18:07:17.175Z,33.83
2018-06-04T18:10:19.115Z,33.81
2018-06-04T18:13:22.306Z,33.83
2018-06-04T18:16:24.399Z,33.75
2018-06-04T18:19:26.523Z,34.14
2018-06-04T18:22:28.608Z,34.31
2018-06-04T18:25:30.931Z,34.70
2018-06-04T18:28:32.984Z,34.71
2018-06-04T18:31:35.287Z,34.91
2018-06-04T18:34:37.397Z,34.91
2018-06-04T18:37:39.855Z,34.41
2018-06-04T18:40:42.379Z,34.74
2018-06-04T18:43:44.857Z,34.01
2018-06-04T18:46:47.455Z,34.25
2018-06-04T18:49:50.975Z,34.33
2018-06-04T18:52:54.004Z,34.57
2018-06-04T18:55:56.011Z,34.73
2018-06-04T18:58:58.490Z,34.75
2018-06-04T19:02:01.150Z,34.97
2018-06-04T19:05:03.703Z,35.05
2018-06-04T19:08:06.223Z,35.41
2018-06-04T19:11:08.603Z,35.47
2018-06-04T19:14:11.155Z,35.84
2018-06-04T19:17:13.250Z,36.16
2018-06-04T19:20:15.735Z,36.45
2018-06-04T19:23:18.286Z,36.77
2018-06-04T19:26:20.696Z,37.12
2018-06-04T19:29:24.658Z,37.58
2018-06-04T19:32:27.174Z,37.70
2018-06-04T19:35:29.252Z,38.11
2018-06-04T19:38:31.728Z,38.13
2018-06-04T19:41:33.765Z,38.49
2018-06-04T19:44:35.799Z,38.87
2018-06-04T19:47:38.343Z,38.83
2018-06-04T19:50:40.867Z,39.09
2018-06-04T19:53:43.412Z,39.30
2018-06-04T19:56:45.843Z,39.72
2018-06-04T19:59:48.439Z,40.28
2018-06-04T20:02:50.951Z,40.54
2018-06-04T20:05:54.515Z,40.93
2018-06-04T20:08:56.922Z,41.28
2018-06-04T20:11:59.019Z,41.73
2018-06-04T20:15:18.539Z,41.76
2018-06-04T20:18:20.938Z,42.09
2018-06-04T20:21:24.630Z,42.33
2018-06-04T20:24:27.053Z,42.63
2018-06-04T20:27:29.579Z,42.83
2018-06-04T20:30:32.141Z,43.19
2018-06-04T20:33:34.645Z,43.56
2018-06-04T20:36:37.043Z,43.41
2018-06-04T20:39:40.154Z,43.66
2018-06-04T20:42:42.699Z,44.16
2018-06-04T20:45:45.148Z,44.77
2018-06-04T20:48:47.663Z,44.97
2018-06-04T20:51:49.698Z,44.98
2018-06-04T20:54:53.655Z,45.44
2018-06-04T20:57:55.734Z,45.70
2018-06-04T21:00:58.196Z,46.11
2018-06-04T21:04:01.788Z,46.02
2018-06-04T21:07:04.277Z,46.22
2018-06-04T21:10:06.836Z,46.92
2018-06-04T21:13:09.350Z,46.64
2018-06-04T21:16:11.839Z,46.80
2018-06-04T21:19:14.259Z,46.94
2018-06-04T21:22:16.346Z,47.70
2018-06-04T21:25:18.922Z,47.98
2018-06-04T21:28:21.320Z,46.99
2018-06-04T21:31:24.403Z,47.68
2018-06-04T21:34:26.456Z,48.19
2018-06-04T21:37:28.436Z,48.48
2018-06-04T21:40:30.505Z,48.54
2018-06-04T21:43:33.019Z,48.83
2018-06-04T21:46:35.508Z,49.52
2018-06-04T21:49:37.546Z,49.58
2018-06-04T21:52:40.099Z,50.02
2018-06-04T21:55:42.611Z,49.67
2018-06-04T21:58:45.130Z,49.77
2018-06-04T22:01:47.567Z,48.30
2018-06-04T22:04:50.136Z,47.04
2018-06-04T22:07:53.537Z,47.35
2018-06-04T22:10:55.615Z,48.11
2018-06-04T22:13:57.699Z,48.90
2018-06-04T22:17:01.271Z,48.82
2018-06-04T22:20:04.687Z,48.45
2018-06-04T22:23:07.338Z,50.29
2018-06-04T22:26:09.755Z,50.07
2018-06-04T22:29:11.764Z,50.56
2018-06-04T22:32:14.377Z,51.25
2018-06-04T22:35:16.780Z,51.87
2018-06-04T22:38:18.808Z,51.15
2018-06-04T22:41:20.880Z,51.28
2018-06-04T22:44:24.413Z,52.66
2018-06-04T22:47:26.916Z,52.07
2018-06-04T22:50:28.940Z,53.88
2018-06-04T22:53:31.524Z,54.57
2018-06-04T22:56:33.887Z,54.37
2018-06-04T22:59:35.988Z,53.80
2018-06-04T23:02:38.548Z,53.89
2018-06-04T23:05:42.000Z,54.78
2018-06-04T23:08:44.014Z,54.42
2018-06-04T23:11:46.598Z,55.46
2018-06-04T23:14:49.035Z,54.73
2018-06-04T23:17:51.119Z,55.75
2018-06-04T23:20:54.639Z,54.94
2018-06-04T23:23:57.056Z,55.11
2018-06-04T23:27:00.140Z,56.59
2018-06-04T23:30:02.085Z,56.49
2018-06-04T23:33:04.123Z,56.89
2018-06-04T23:36:07.676Z,56.28
2018-06-04T23:39:09.724Z,56.70
2018-06-04T23:42:11.781Z,57.04
2018-06-04T23:45:13.995Z,57.06
2018-06-04T23:48:16.066Z,57.03
2018-06-04T23:51:18.100Z,57.69
2018-06-04T23:54:20.159Z,57.66
2018-06-04T23:57:22.278Z,58.59
